• Join FlightAware (Why Join?)
  • Login
  • US Flag 
07:48AM EDT


 

Airport Tracker/Info


-or-


 

Live Flight TrackerFlight Track Log ✈ SWA1729 ✈ 19-May-2013 ✈ KHOU - KELP

Flight Track Log - Related Links

Times and Time Zones

All times are in EDT time to prevent confusion due to time zone crossing. See the SWA1729 flight status page for this flight to view local times or setup timezone preferences in your user account.

Time Position Orientation Groundspeed Altitude Reporting Facility
EDT Latitude Longitude Course Direction KTS MPH feet Rate Location/Type
10:07PM 29.5956 -95.3131 208° Southwest 209 241 2,800  Level Houston Center
10:08PM 29.5739 -95.3269 209° Southwest 206 237 4,000 2,700 Climbing Houston Center
10:09PM 29.5300 -95.3522 207° Southwest 246 283 5,800 2,520 Climbing Houston Center
10:09PM 29.5133 -95.3617 206° Southwest 233 268 6,600 3,000 Climbing Houston Center
10:10PM 29.4842 -95.4347 245° Southwest 279 321 9,800 2,700 Climbing Houston Center
10:11PM 29.5339 -95.5214 303° West 321 369 12,100 2,700 Climbing Houston Center
10:12PM 29.5881 -95.6133 304° West 343 395 15,300 2,820 Climbing Houston Center
10:13PM 29.6422 -95.7061 304° West 347 399 17,900 2,340 Climbing Houston Center
10:14PM 29.6828 -95.8125 294° West 367 422 20,100 2,400 Climbing Houston Center
10:15PM 29.7106 -95.9292 285° West 379 436 22,800 2,220 Climbing Houston Center
10:16PM 29.7403 -96.0544 285° West 379 436 24,700 1,620 Climbing Houston Center
10:17PM 29.7703 -96.1767 286° West 397 457 26,100 1,440 Climbing Houston Center
10:18PM 29.8000 -96.3042 285° West 413 475 27,700 1,800 Climbing Houston Center
10:19PM 29.8297 -96.4322 285° West 417 480 29,800 1,980 Climbing Houston Center
10:20PM 29.8586 -96.5536 285° West 400 460 31,800 1,620 Climbing Houston Center
10:21PM 29.8872 -96.6739 285° West 394 453 33,100 1,320 Climbing Houston Center
10:22PM 29.9217 -96.8211 285° West 398 458 34,600 1,440 Climbing Houston Center
10:23PM 29.9497 -96.9403 285° West 391 450 36,100 660 Climbing Houston Center
10:24PM 29.9769 -97.0594 285° West 388 447 36,000  Descending Houston Center
10:25PM 30.0053 -97.1800 285° West 390 449 36,100  Climbing Houston Center
10:26PM 30.0325 -97.3017 285° West 393 452 36,000  Descending Houston Center
10:27PM 30.0608 -97.4231 285° West 394 453 36,100  Climbing Houston Center
10:28PM 30.0917 -97.5569 285° West 395 455 36,100  Level Houston Center
10:29PM 30.1192 -97.6808 284° West 393 452 36,100  Level Houston Center
10:30PM 30.1472 -97.8042 285° West 392 451 36,100  Level Houston Center
10:31PM 30.1758 -97.9347 284° West 390 449 36,100  Level Houston Center
10:32PM 30.2031 -98.0547 285° West 387 445 36,100  Level Houston Center
10:33PM 30.2297 -98.1775 284° West 392 451 36,100  Level Houston Center
10:34PM 30.2569 -98.2994 285° West 392 451 36,100  Level Houston Center
10:35PM 30.2831 -98.4172 284° West 394 453 36,100  Level Houston Center
10:36PM 30.3092 -98.5408 284° West 380 437 36,100  Level Houston Center
10:37PM 30.3358 -98.6622 284° West 383 441 36,100  Level Houston Center
10:38PM 30.3611 -98.7836 284° West 383 441 36,100  Level Houston Center
10:39PM 30.3894 -98.9050 285° West 386 444 36,100  Level Houston Center
10:40PM 30.4164 -99.0272 284° West 388 447 36,100  Level Houston Center
10:41PM 30.4403 -99.1442 283° West 385 443 36,100 -60 Level Houston Center
10:42PM 30.4672 -99.2642 285° West 386 444 36,000 -60 Descending Houston Center
10:43PM 30.4919 -99.3853 283° West 387 445 36,000  Level Houston Center
10:44PM 30.5183 -99.5064 284° West 389 448 36,100  Climbing Houston Center
10:45PM 30.5431 -99.6269 283° West 385 443 36,100  Level Houston Center
10:46PM 30.5725 -99.7719 283° West 384 442 36,100  Level Houston Center
10:47PM 30.5972 -99.8928 283° West 388 447 36,100  Level Houston Center
10:49PM 30.6228 -100.0128 284° West 385 443 36,100 -60 Level Houston Center
10:50PM 30.6478 -100.1322 284° West 384 442 36,000  Descending Houston Center
10:51PM 30.6736 -100.2492 284° West 376 433 36,100  Climbing Houston Center
10:52PM 30.6969 -100.3736 282° West 394 453 36,000  Descending Houston Center
10:53PM 30.7211 -100.4931 283° West 386 444 36,100  Climbing Houston Center
10:54PM 30.7456 -100.6125 283° West 383 441 36,100 -60 Level Houston Center
10:55PM 30.7692 -100.7328 283° West 384 442 36,000  Descending Houston Center
10:56PM 30.7933 -100.8539 283° West 385 443 36,100  Climbing Houston Center
10:57PM 30.8222 -100.9989 283° West 386 444 36,100 -60 Level Houston Center
10:58PM 30.8458 -101.1197 283° West 385 443 36,000 -60 Descending Houston Center
10:59PM 30.8706 -101.2417 283° West 386 444 36,000  Level Houston Center
11:00PM 30.8942 -101.3606 283° West 384 442 36,100 60 Climbing Houston Center
11:00PM 30.9078 -101.4342 282° West 388 447 36,100 -120 Level Albuquerque Center
11:01PM 30.9311 -101.5578 282° West 390 449 36,000  Descending Albuquerque Center
11:02PM 30.9556 -101.6789 283° West 388 447 36,100  Climbing Albuquerque Center
11:03PM 30.9778 -101.8011 282° West 386 444 36,100  Level Albuquerque Center
11:04PM 31.0011 -101.9236 283° West 386 444 36,100  Level Albuquerque Center
11:05PM 31.0217 -102.0403 282° West 391 450 36,100  Level Albuquerque Center
11:06PM 31.0450 -102.1619 283° West 390 449 36,100  Level Albuquerque Center
11:07PM 31.0731 -102.3069 283° West 386 444 36,100  Level Albuquerque Center
11:08PM 31.0950 -102.4272 282° West 383 441 36,100  Level Albuquerque Center
11:09PM 31.1175 -102.5481 282° West 382 440 36,100  Level Albuquerque Center
11:10PM 31.1372 -102.6572 282° West 377 434 36,100 -60 Level Albuquerque Center
11:11PM 31.1594 -102.7800 282° West 383 441 36,000 -60 Descending Albuquerque Center
11:13PM 31.1856 -102.9253 282° West 383 441 36,000  Level Albuquerque Center
11:14PM 31.2075 -103.0481 282° West 385 443 36,000  Level Albuquerque Center
11:15PM 31.2300 -103.1703 282° West 386 444 36,100  Climbing Albuquerque Center
11:16PM 31.2519 -103.2947 282° West 388 447 36,100  Level Albuquerque Center
11:17PM 31.2722 -103.4178 281° West 387 445 36,100  Level Albuquerque Center
11:18PM 31.2947 -103.5419 282° West 389 448 36,100 -60 Level Albuquerque Center
11:19PM 31.3153 -103.6639 281° West 386 444 36,000 -60 Descending Albuquerque Center
11:20PM 31.3386 -103.7897 282° West 381 438 36,000  Level Albuquerque Center
11:21PM 31.3606 -103.9125 282° West 385 443 36,000  Level Albuquerque Center
11:22PM 31.3822 -104.0322 282° West 381 438 36,100  Climbing Albuquerque Center
11:23PM 31.4014 -104.1533 281° West 380 437 36,100 -60 Level Albuquerque Center
11:24PM 31.4272 -104.2983 282° West 380 437 36,000  Descending Albuquerque Center
11:25PM 31.4475 -104.4200 281° West 382 440 36,100  Climbing Albuquerque Center
11:26PM 31.4617 -104.5400 278° West 377 434 36,100 -240 Level Albuquerque Center
11:27PM 31.4747 -104.6628 277° West 381 438 35,700 -1,620 Descending Albuquerque Center
11:28PM 31.4872 -104.7819 277° West 373 429 32,800 -2,640 Descending Albuquerque Center
11:29PM 31.5003 -104.9039 277° West 377 434 30,400 -2,340 Descending Albuquerque Center
11:30PM 31.5119 -105.0217 277° West 374 430 28,100 -2,460 Descending Albuquerque Center
11:31PM 31.5256 -105.1628 276° West 369 425 25,400 -2,400 Descending Albuquerque Center
11:32PM 31.5367 -105.2736 277° West 361 415 23,200 -2,160 Descending Albuquerque Center
11:33PM 31.5453 -105.3639 276° West 324 373 21,400 -2,100 Descending Albuquerque Center
11:34PM 31.5572 -105.4831 277° West 314 361 19,100 -2,100 Descending Albuquerque Center
11:35PM 31.5656 -105.5833 276° West 315 362 17,000 -1,920 Descending Albuquerque Center
11:36PM 31.5761 -105.6753 278° West 301 346 15,100 -1,920 Descending Albuquerque Center
11:37PM 31.5839 -105.7733 275° West 287 330 13,200 -1,980 Descending Albuquerque Center
11:38PM 31.6167 -105.8575 295° West 287 330 11,400 -1,560 Descending Albuquerque Center
11:39PM 31.6550 -105.9375 299° West 284 327 10,100 -1,260 Descending Albuquerque Center
11:40PM 31.6917 -106.0083 301° West 245 282 8,900 -1,140 Descending Albuquerque Center
11:41PM 31.7175 -106.0792 293° West 231 266 7,900 -1,080 Descending Albuquerque Center
11:42PM 31.7467 -106.1567 294° West 243 280 6,800 -840 Descending Albuquerque Center
11:43PM 31.7711 -106.2206 294° West 218 251 6,300 -660 Descending Albuquerque Center
11:44PM 31.7894 -106.2736 292° West 165 190 5,500 -780 Descending Albuquerque Center
11:45PM 31.7972 -106.3167 282° West 116 133 4,800 -720 Descending Albuquerque Center
11:46PM 31.8017 -106.3647 276° West 129 148 3,900 -720 Descending Albuquerque Center
11:48PM 31.8000 -106.3667 270° West  Level FlightAware Approximate
11:55PM 31.8072 -106.3764 270° West  Level Estimated
11:56PM 31.8072 -106.3764 270° West  Level Estimated
11:57PM 31.8072 -106.3764 270° West  Level Estimated
11:58PM 31.8072 -106.3764 270° West  Level Estimated